Shokyu Maru — JG5288 — position and weather

sailwx.info

Track history (hours):
 
Tides and Currents Weather Stations Pressure Air Temp Water Temp Dewpoint Dewpoint Depression Visibility Wind Speed Wind Dir Waves Ship Positions

Shokyu Maru

Last reported at 2017-Dec-18 16:16 UTC. Time now 2017-Dec-18 16:55 UTC.
Position N 35°41' E 139°59'.

Length 91 m; draft 3.8 m.

Type: Ship. MMSI: 431000253.

Date/timePositionNaut miles runAvg speedWind from/ knotsBaromVisibWave heightAir tempDewpointWater temp
2017-Dec-18 16:16N 35°41' E 139°59'0 0.0
2017-Dec-18 14:37N 35°41' E 139°59'0 0.0
2017-Dec-18 14:25N 35°41' E 139°59'0 0.0
2017-Dec-18 05:07N 35°41' E 139°59'0 0.5
2017-Dec-18 04:38N 35°41' E 139°59'1 9.0
2017-Dec-18 04:30N 35°39' E 139°59'5 9.8
2017-Dec-18 04:00N 35°35' E 139°56'1 1.4
2017-Dec-18 03:30N 35°36' E 139°56'5 9.1
2017-Dec-18 02:59N 35°40' E 139°57'1 1.4
2017-Dec-18 02:25N 35°41' E 139°56'0 0.1
2017-Dec-17 21:36N 35°40' E 139°57'1 7.1
2017-Dec-17 21:29N 35°40' E 139°57'4 8.3
2017-Dec-17 21:00N 35°36' E 139°56'1 1.3
2017-Dec-17 20:25N 35°35' E 139°55'0 0.0
2017-Dec-17 19:13N 35°35' E 139°55'0 0.0
2017-Dec-17 18:55N 35°35' E 139°55'0 0.0
2017-Dec-17 18:25N 35°35' E 139°55'0 0.0
2017-Dec-17 17:43N 35°35' E 139°55'0 0.0
2017-Dec-17 17:13N 35°35' E 139°55'0 0.0
2017-Dec-17 16:49N 35°35' E 139°55'0 0.0
2017-Dec-17 16:13N 35°35' E 139°55'0 0.0
2017-Dec-17 15:52N 35°35' E 139°55'0 0.0
2017-Dec-17 15:28N 35°35' E 139°55'0 0.0
2017-Dec-17 14:55N 35°35' E 139°55'0 0.0
2017-Dec-17 14:25N 35°35' E 139°55'0 0.0
2017-Dec-17 13:49N 35°35' E 139°55'0 0.0
2017-Dec-17 13:25N 35°35' E 139°55'0 0.0
2017-Dec-17 12:55N 35°35' E 139°55'2 4.7
2017-Dec-17 12:31N 35°34' E 139°54'5 9.9
2017-Dec-17 12:01N 35°31' E 139°49'2 4.7
2017-Dec-17 11:30N 35°31' E 139°46'0 0.0
2017-Dec-17 11:00N 35°31' E 139°46'0 0.0
2017-Dec-17 10:30N 35°31' E 139°46'0 0.0
2017-Dec-17 10:00N 35°31' E 139°46'0 0.0
2017-Dec-17 09:30N 35°31' E 139°46'0 0.0
2017-Dec-17 09:00N 35°31' E 139°46'0 0.0
2017-Dec-17 08:27N 35°31' E 139°46'0 0.0
2017-Dec-17 07:57N 35°31' E 139°46'0 0.0
2017-Dec-17 07:30N 35°31' E 139°46'0 0.0
2017-Dec-17 07:00N 35°31' E 139°46'0 0.0
2017-Dec-17 06:30N 35°31' E 139°46'0 0.0
2017-Dec-17 05:57N 35°31' E 139°46'0 0.0
2017-Dec-17 05:30N 35°31' E 139°46'0 0.1
2017-Dec-17 05:00N 35°31' E 139°46'4 8.0
2017-Dec-17 04:30N 35°29' E 139°42'4 8.2
2017-Dec-17 04:00N 35°28' E 139°47'611.6
2017-Dec-17 03:30N 35°32' E 139°53'611.5
2017-Dec-17 03:00N 35°36' E 139°57'4 6.3
2017-Dec-17 02:20N 35°41' E 139°56'0 0.0
2017-Dec-17 01:56N 35°41' E 139°56'0 0.0
2017-Dec-17 01:20N 35°41' E 139°56'0 0.0
2017-Dec-17 00:56N 35°41' E 139°56'0 0.0
2017-Dec-17 00:26N 35°41' E 139°56'0 0.0
2017-Dec-16 23:50N 35°41' E 139°56'0 0.0
2017-Dec-16 23:26N 35°41' E 139°56'0 0.0
2017-Dec-16 22:50N 35°41' E 139°56'0 0.0
2017-Dec-16 22:26N 35°41' E 139°56'0 0.3
2017-Dec-16 21:43N 35°40' E 139°57'2 8.4
2017-Dec-16 21:30N 35°39' E 139°58'4 8.0
2017-Dec-16 21:00N 35°36' E 139°55'0 0.5
2017-Dec-16 20:29N 35°36' E 139°55'0 0.0
2017-Dec-16 19:56N 35°36' E 139°55'0 0.0
2017-Dec-16 19:26N 35°36' E 139°55'0 0.0
2017-Dec-16 18:56N 35°36' E 139°55'0 0.1
2017-Dec-16 18:26N 35°36' E 139°55'0 0.2
2017-Dec-16 17:59N 35°36' E 139°55'0 0.0
2017-Dec-16 17:14N 35°36' E 139°55'0 0.0
2017-Dec-16 16:56N 35°36' E 139°55'0 0.0
2017-Dec-16 16:26N 35°36' E 139°55'0 0.0
2017-Dec-16 15:50N 35°36' E 139°55'0 0.0
2017-Dec-16 15:17N 35°36' E 139°55'0 0.0
2017-Dec-16 14:50N 35°36' E 139°55'0 0.1
2017-Dec-16 14:17N 35°36' E 139°55'0 0.1
2017-Dec-16 13:56N 35°36' E 139°55'0 0.0
2017-Dec-16 13:26N 35°36' E 139°55'0 0.0
2017-Dec-16 12:56N 35°36' E 139°55'0 0.0
2017-Dec-16 10:56N 35°36' E 139°55'2 4.4
2017-Dec-16 10:30N 35°34' E 139°54'510.7
2017-Dec-16 10:00N 35°31' E 139°49'2 4.7
2017-Dec-16 09:29N 35°31' E 139°46'0 0.0
2017-Dec-16 08:59N 35°31' E 139°46'0 0.0
2017-Dec-16 08:29N 35°31' E 139°46'0 0.0
2017-Dec-16 07:56N 35°31' E 139°46'0 0.0
2017-Dec-16 07:29N 35°31' E 139°46'0 0.0
2017-Dec-16 06:59N 35°31' E 139°46'0 0.0
2017-Dec-16 06:26N 35°31' E 139°46'0 0.0
2017-Dec-16 05:59N 35°31' E 139°46'0 0.0
2017-Dec-16 05:29N 35°31' E 139°46'0 0.0
2017-Dec-16 04:59N 35°31' E 139°46'0 0.0
2017-Dec-16 04:29N 35°31' E 139°46'0 0.0
2017-Dec-16 03:59N 35°31' E 139°46'0 0.1
2017-Dec-16 03:30N 35°31' E 139°46'4 8.5
2017-Dec-16 03:00N 35°28' E 139°42'5 9.5
2017-Dec-16 02:30N 35°29' E 139°48'611.4
2017-Dec-16 02:00N 35°32' E 139°53'611.6
2017-Dec-16 01:29N 35°37' E 139°58'3 7.3
2017-Dec-16 01:00N 35°41' E 139°56'0 0.0
2017-Dec-15 23:48N 35°41' E 139°56'0 0.0
2017-Dec-15 21:54N 35°41' E 139°56'1 2.7
2017-Dec-15 21:30N 35°40' E 139°57'4 8.0
2017-Dec-15 21:00N 35°36' E 139°56'1 1.7
2017-Dec-15 20:29N 35°35' E 139°55'0 0.1
2017-Dec-15 19:47N 35°35' E 139°55'0 0.0
2017-Dec-15 19:29N 35°35' E 139°55'0 0.0
2017-Dec-15 18:59N 35°35' E 139°55'0 0.0
2017-Dec-15 18:11N 35°35' E 139°55'0 0.0
2017-Dec-15 17:53N 35°35' E 139°55'0 0.0
2017-Dec-15 17:14N 35°35' E 139°55'0 0.0
2017-Dec-15 16:59N 35°35' E 139°55'0 0.0
2017-Dec-15 16:29N 35°35' E 139°55'0 0.0
2017-Dec-15 15:59N 35°35' E 139°55'0 0.0
2017-Dec-15 15:23N 35°35' E 139°55'0 0.0
2017-Dec-15 14:35N 35°35' E 139°55'0 0.1
2017-Dec-15 14:29N 35°35' E 139°55'0 0.0
2017-Dec-15 13:35N 35°35' E 139°55'0 0.0
2017-Dec-15 13:11N 35°35' E 139°55'0 0.0
2017-Dec-15 12:47N 35°35' E 139°55'0 0.0
2017-Dec-15 12:29N 35°35' E 139°55'1 2.2
2017-Dec-15 12:00N 35°35' E 139°56'510.3
2017-Dec-15 11:30N 35°32' E 140°01'1 2.8
2017-Dec-15 11:00N 35°31' E 140°03'0 0.0
2017-Dec-15 10:30N 35°31' E 140°03'0 0.0
2017-Dec-15 10:00N 35°31' E 140°03'0 0.0
2017-Dec-15 09:30N 35°31' E 140°03'0 0.0
2017-Dec-15 09:00N 35°31' E 140°03'0 0.0
2017-Dec-15 08:30N 35°31' E 140°03'0 0.0
2017-Dec-15 08:00N 35°31' E 140°03'0 0.0
2017-Dec-15 07:30N 35°31' E 140°03'0 0.0
2017-Dec-15 07:00N 35°31' E 140°03'0 0.0
2017-Dec-15 06:30N 35°31' E 140°03'0 0.0
2017-Dec-15 06:00N 35°31' E 140°03'0 0.0
2017-Dec-15 05:30N 35°31' E 140°03'0 0.0
2017-Dec-15 05:00N 35°31' E 140°03'0 0.0
2017-Dec-15 04:30N 35°31' E 140°03'0 0.0
2017-Dec-15 04:00N 35°31' E 140°03'7 4.3
2017-Dec-15 02:30N 35°37' E 139°59'4 2.2
2017-Dec-15 00:27N 35°41' E 139°56'5 0.9
2017-Dec-14 18:28N 35°35' E 139°55'0 0.0
2017-Dec-14 17:58N 35°35' E 139°55'0 0.0
2017-Dec-14 17:28N 35°35' E 139°55'0 0.0
2017-Dec-14 16:58N 35°35' E 139°55'0 0.0
2017-Dec-14 16:28N 35°35' E 139°55'0 0.0
2017-Dec-14 15:59N 35°35' E 139°55'8 7.8
2017-Dec-14 15:00N 35°31' E 140°03'0 0.1
2017-Dec-14 14:30N 35°31' E 140°03'0 0.0
2017-Dec-14 14:00N 35°31' E 140°03'0 0.0
2017-Dec-14 13:30N 35°31' E 140°03'0 0.0
2017-Dec-14 13:01N 35°31' E 140°03'0 0.0
2017-Dec-14 12:30N 35°31' E 140°03'0 0.0
2017-Dec-14 12:00N 35°31' E 140°03'0 0.0
2017-Dec-14 11:30N 35°31' E 140°03'0 0.0
2017-Dec-14 11:00N 35°31' E 140°03'0 0.0
2017-Dec-14 10:30N 35°31' E 140°03'0 0.0
2017-Dec-14 10:01N 35°31' E 140°03'0 0.0
2017-Dec-14 09:30N 35°31' E 140°03'0 0.0
2017-Dec-14 09:00N 35°31' E 140°03'0 0.0
2017-Dec-14 08:31N 35°31' E 140°03'0 0.0
2017-Dec-14 08:00N 35°31' E 140°03'1 2.7
2017-Dec-14 07:31N 35°32' E 140°01'0 0.2
2017-Dec-14 06:58N 35°32' E 140°01'0 0.0
2017-Dec-14 06:22N 35°32' E 140°01'0 0.0
2017-Dec-14 05:58N 35°32' E 140°01'0 0.1
2017-Dec-14 05:28N 35°32' E 140°02'0 0.1
2017-Dec-14 04:58N 35°32' E 140°01'0 0.1
2017-Dec-14 04:28N 35°32' E 140°02'0 0.1
2017-Dec-14 03:58N 35°32' E 140°01'3 6.6
2017-Dec-14 03:30N 35°35' E 140°00'611.6
2017-Dec-14 03:00N 35°40' E 139°57'1 0.3
2017-Dec-13 23:51N 35°41' E 139°56'0 0.0
2017-Dec-13 23:27N 35°41' E 139°56'0 0.0
2017-Dec-13 21:51N 35°41' E 139°56'1 2.4
2017-Dec-13 21:30N 35°40' E 139°57'4 7.6
2017-Dec-13 21:00N 35°36' E 139°56'1 1.9
2017-Dec-13 20:28N 35°36' E 139°55'0 0.0
2017-Dec-13 19:55N 35°36' E 139°55'0 0.0
2017-Dec-13 19:04N 35°36' E 139°55'0 0.0
2017-Dec-13 18:49N 35°36' E 139°55'0 0.0
2017-Dec-13 18:22N 35°36' E 139°55'0 0.0
2017-Dec-13 17:58N 35°36' E 139°55'0 0.0
2017-Dec-13 17:19N 35°36' E 139°55'0 0.0
2017-Dec-13 16:55N 35°36' E 139°55'0 0.0
2017-Dec-13 16:25N 35°36' E 139°55'0 0.0
2017-Dec-13 15:55N 35°36' E 139°55'0 0.0
2017-Dec-13 15:25N 35°36' E 139°55'0 0.0
2017-Dec-13 14:55N 35°36' E 139°55'0 0.0
2017-Dec-13 14:25N 35°36' E 139°55'0 0.0
2017-Dec-13 13:55N 35°36' E 139°55'0 0.0
2017-Dec-13 13:25N 35°36' E 139°55'0 0.0
2017-Dec-13 11:43N 35°36' E 139°55'0 0.0
2017-Dec-13 11:25N 35°36' E 139°55'0 0.1
2017-Dec-13 10:55N 35°36' E 139°55'0 0.1
2017-Dec-13 10:25N 35°36' E 139°55'0 0.3
2017-Dec-13 10:00N 35°36' E 139°55'4 8.5
2017-Dec-13 09:30N 35°33' E 139°59'4 7.0
2017-Dec-13 08:58N 35°30' E 140°02'0 0.0
2017-Dec-13 08:31N 35°30' E 140°02'0 0.0
2017-Dec-13 07:31N 35°30' E 140°02'0 0.0
2017-Dec-13 07:07N 35°30' E 140°02'0 0.0
2017-Dec-13 06:55N 35°30' E 140°02'0 0.0
2017-Dec-13 06:10N 35°30' E 140°02'0 0.0
2017-Dec-13 05:46N 35°30' E 140°02'0 0.0
2017-Dec-13 05:28N 35°30' E 140°02'0 0.1
2017-Dec-13 04:55N 35°30' E 140°02'2 4.6
2017-Dec-13 04:30N 35°31' E 140°00'4 7.7
2017-Dec-13 04:00N 35°34' E 139°56'2 3.1
2017-Dec-13 03:30N 35°34' E 139°55'3 6.8
2017-Dec-13 02:59N 35°37' E 139°58'3 6.7
2017-Dec-13 02:29N 35°41' E 139°56'0 0.0
2017-Dec-13 01:59N 35°41' E 139°56'0 0.0
2017-Dec-13 01:29N 35°41' E 139°56'0 0.0
2017-Dec-13 00:53N 35°41' E 139°56'0 0.0
2017-Dec-13 00:29N 35°41' E 139°56'0 0.0
2017-Dec-12 23:59N 35°41' E 139°56'0 0.0
2017-Dec-12 23:29N 35°41' E 139°56'0 0.0
2017-Dec-12 22:59N 35°41' E 139°56'0 0.0
2017-Dec-12 22:29N 35°41' E 139°56'0 0.0
2017-Dec-12 21:53N 35°41' E 139°56'1 3.6
2017-Dec-12 21:30N 35°40' E 139°58'4 7.7
2017-Dec-12 21:00N 35°36' E 139°56'1 1.0
2017-Dec-12 20:28N 35°36' E 139°55'0 0.1
2017-Dec-12 19:52N 35°36' E 139°55'0 0.1
2017-Dec-12 19:29N 35°36' E 139°55'0 0.0
2017-Dec-12 18:59N 35°36' E 139°55'0 0.0
2017-Dec-12 18:28N 35°36' E 139°55'0 0.0
2017-Dec-12 17:58N 35°36' E 139°55'0 0.0
2017-Dec-12 16:29N 35°36' E 139°55'0 0.0
2017-Dec-12 15:58N 35°36' E 139°55'0 0.0
2017-Dec-12 15:28N 35°36' E 139°55'0 0.0
2017-Dec-12 14:58N 35°36' E 139°55'0 0.0
2017-Dec-12 14:28N 35°36' E 139°55'0 0.0
2017-Dec-12 13:58N 35°36' E 139°55'0 0.0
2017-Dec-12 13:30N 35°36' E 139°55'3 6.9
2017-Dec-12 13:01N 35°33' E 139°52'5 9.8
2017-Dec-12 12:30N 35°30' E 139°48'2 3.3
2017-Dec-12 12:00N 35°31' E 139°46'0 0.0
2017-Dec-12 11:30N 35°31' E 139°46'0 0.0
2017-Dec-12 11:00N 35°31' E 139°46'0 0.0
2017-Dec-12 10:30N 35°31' E 139°46'0 0.0
2017-Dec-12 10:00N 35°31' E 139°46'0 0.0
2017-Dec-12 09:27N 35°31' E 139°46'0 0.0
2017-Dec-12 09:00N 35°31' E 139°46'0 0.0
2017-Dec-12 08:24N 35°31' E 139°46'0 0.0
2017-Dec-12 07:57N 35°31' E 139°46'0 0.0
2017-Dec-12 07:30N 35°31' E 139°46'0 0.0
2017-Dec-12 07:00N 35°31' E 139°46'0 0.0
2017-Dec-12 06:30N 35°31' E 139°46'0 0.0
2017-Dec-12 06:00N 35°31' E 139°46'3 5.1
2017-Dec-12 05:30N 35°30' E 139°44'3 6.3
2017-Dec-12 05:00N 35°26' E 139°44'0 1.0
2017-Dec-12 04:30N 35°26' E 139°43'4 8.5
2017-Dec-12 04:00N 35°28' E 139°39'0 0.3
2017-Dec-12 03:31N 35°29' E 139°39'0 0.0
2017-Dec-12 03:00N 35°29' E 139°39'0 0.0
2017-Dec-12 02:31N 35°29' E 139°39'0 0.0
2017-Dec-12 02:00N 35°29' E 139°39'0 0.0
2017-Dec-12 01:30N 35°29' E 139°39'0 0.0
2017-Dec-12 01:00N 35°29' E 139°39'0 0.0
2017-Dec-12 00:30N 35°29' E 139°39'0 0.0
2017-Dec-12 00:00N 35°29' E 139°39'0 0.0
2017-Dec-11 23:30N 35°29' E 139°39'0 0.0
2017-Dec-11 23:00N 35°29' E 139°39'0 0.0
2017-Dec-11 22:30N 35°29' E 139°39'0 0.0
2017-Dec-11 22:00N 35°29' E 139°39'0 0.0
2017-Dec-11 21:30N 35°29' E 139°39'0 0.0
2017-Dec-11 21:00N 35°29' E 139°39'0 0.0
2017-Dec-11 20:31N 35°29' E 139°39'0 0.0
2017-Dec-11 20:00N 35°29' E 139°39'0 0.0
2017-Dec-11 19:30N 35°29' E 139°39'0 0.0
2017-Dec-11 19:00N 35°29' E 139°39'0 0.0
2017-Dec-11 18:30N 35°29' E 139°39'0 0.0
2017-Dec-11 18:01N 35°29' E 139°39'0 0.0
2017-Dec-11 17:28N 35°29' E 139°39'0 0.0
2017-Dec-11 17:00N 35°29' E 139°39'0 0.0
2017-Dec-11 16:30N 35°29' E 139°39'0 0.0
2017-Dec-11 15:57N 35°29' E 139°39'0 0.0
2017-Dec-11 15:30N 35°29' E 139°39'0 0.0
2017-Dec-11 15:00N 35°29' E 139°39'0 0.0
2017-Dec-11 14:31N 35°29' E 139°39'0 0.0
2017-Dec-11 14:00N 35°29' E 139°39'0 0.0
2017-Dec-11 13:30N 35°29' E 139°39'0 0.0
2017-Dec-11 13:00N 35°29' E 139°39'0 0.0
2017-Dec-11 12:30N 35°29' E 139°39'0 0.0
2017-Dec-11 12:00N 35°29' E 139°39'0 0.0
2017-Dec-11 11:30N 35°29' E 139°39'0 0.0
2017-Dec-11 11:00N 35°29' E 139°39'0 0.0
2017-Dec-11 10:31N 35°29' E 139°39'0 0.0
2017-Dec-11 09:58N 35°29' E 139°39'0 0.0
2017-Dec-11 09:30N 35°29' E 139°39'0 0.0
2017-Dec-11 09:00N 35°29' E 139°39'0 0.0
2017-Dec-11 08:30N 35°29' E 139°39'0 0.0
2017-Dec-11 08:01N 35°29' E 139°39'0 0.0
2017-Dec-11 07:30N 35°29' E 139°39'0 0.0
2017-Dec-11 07:00N 35°29' E 139°39'0 0.0
2017-Dec-11 06:30N 35°29' E 139°39'0 0.0
2017-Dec-11 06:00N 35°29' E 139°39'0 0.0
2017-Dec-11 05:28N 35°29' E 139°39'0 0.0
2017-Dec-11 05:00N 35°29' E 139°39'4 7.4
2017-Dec-11 04:30N 35°27' E 139°43'5 9.9
2017-Dec-11 04:00N 35°29' E 139°48'5 9.5
2017-Dec-11 03:30N 35°32' E 139°53'610.9
2017-Dec-11 02:55N 35°37' E 139°58'4 0.7
2017-Dec-10 21:41N 35°40' E 139°57'1 6.1
2017-Dec-10 21:30N 35°40' E 139°57'4 7.8
2017-Dec-10 21:00N 35°36' E 139°56'1 1.8
2017-Dec-10 20:30N 35°36' E 139°55'0 0.0
2017-Dec-10 20:00N 35°36' E 139°55'0 0.0
2017-Dec-10 19:30N 35°36' E 139°55'0 0.0
2017-Dec-10 18:55N 35°36' E 139°55'0 0.0
2017-Dec-10 18:28N 35°36' E 139°55'0 0.0
2017-Dec-10 17:59N 35°36' E 139°55'0 0.0
2017-Dec-10 17:28N 35°36' E 139°55'0 0.0
2017-Dec-10 16:40N 35°36' E 139°55'0 0.0
2017-Dec-10 16:26N 35°36' E 139°55'0 0.0
2017-Dec-10 15:01N 35°36' E 139°55'0 1.5
2017-Dec-10 14:59N 35°36' E 139°55'3 6.9
2017-Dec-10 14:30N 35°33' E 139°53'510.5
2017-Dec-10 14:01N 35°30' E 139°47'1 2.4
2017-Dec-10 13:28N 35°31' E 139°46'0 0.0
2017-Dec-10 12:58N 35°31' E 139°46'0 0.0
2017-Dec-10 12:28N 35°31' E 139°46'0 0.0
2017-Dec-10 11:49N 35°31' E 139°46'0 0.0
2017-Dec-10 11:28N 35°31' E 139°46'0 0.0
2017-Dec-10 10:58N 35°31' E 139°46'0 0.0
2017-Dec-10 10:28N 35°31' E 139°46'0 0.0
2017-Dec-10 09:58N 35°31' E 139°46'0 0.0
2017-Dec-10 09:28N 35°31' E 139°46'0 0.0
2017-Dec-10 08:52N 35°31' E 139°46'0 0.0
2017-Dec-10 08:28N 35°31' E 139°46'0 0.0
2017-Dec-10 07:58N 35°31' E 139°46'4 8.2
2017-Dec-10 07:30N 35°29' E 139°42'3 6.8
2017-Dec-10 07:00N 35°28' E 139°46'3 5.6
2017-Dec-10 06:30N 35°29' E 139°49'0 0.0
2017-Dec-10 06:00N 35°29' E 139°49'0 0.0
2017-Dec-10 05:30N 35°29' E 139°49'1 1.2
2017-Dec-10 05:00N 35°30' E 139°50'510.7
2017-Dec-10 04:30N 35°34' E 139°54'611.4
2017-Dec-10 04:00N 35°38' E 139°59'3 0.6
2017-Dec-09 22:56N 35°41' E 139°56'1 1.6
2017-Dec-09 22:30N 35°40' E 139°57'4 7.6
2017-Dec-09 22:01N 35°36' E 139°56'1 1.8
2017-Dec-09 21:19N 35°36' E 139°55'0 0.0
2017-Dec-09 20:55N 35°36' E 139°55'0 0.0
2017-Dec-09 20:25N 35°36' E 139°55'0 0.0
2017-Dec-09 19:49N 35°36' E 139°55'0 0.0
2017-Dec-09 19:25N 35°36' E 139°55'0 0.0
2017-Dec-09 18:55N 35°36' E 139°55'0 0.0
2017-Dec-09 18:25N 35°36' E 139°55'0 0.1
2017-Dec-09 17:55N 35°36' E 139°55'0 0.0
2017-Dec-09 17:25N 35°36' E 139°55'0 0.1
2017-Dec-09 16:58N 35°36' E 139°55'0 0.1
2017-Dec-09 16:25N 35°36' E 139°55'0 0.0
2017-Dec-09 15:55N 35°36' E 139°55'0 0.0
2017-Dec-09 15:25N 35°36' E 139°55'0 0.1
2017-Dec-09 14:46N 35°36' E 139°55'0 0.0
2017-Dec-09 14:22N 35°36' E 139°55'0 0.1
2017-Dec-09 13:55N 35°36' E 139°55'0 0.1
2017-Dec-09 13:28N 35°36' E 139°55'0 0.1
2017-Dec-09 12:46N 35°36' E 139°55'0 0.1
2017-Dec-09 11:46N 35°36' E 139°55'1 3.9
2017-Dec-09 11:30N 35°35' E 139°54'510.5
2017-Dec-09 11:01N 35°31' E 139°50'4 7.2
2017-Dec-09 10:29N 35°30' E 139°45'0 0.0
2017-Dec-09 09:56N 35°30' E 139°45'0 0.0
2017-Dec-09 09:29N 35°30' E 139°45'0 0.0
2017-Dec-09 08:53N 35°30' E 139°45'0 0.0
2017-Dec-09 08:29N 35°30' E 139°45'0 0.0
2017-Dec-09 07:59N 35°30' E 139°45'0 0.0
2017-Dec-09 07:29N 35°30' E 139°45'0 0.0
2017-Dec-09 06:59N 35°30' E 139°45'0 0.0
2017-Dec-09 06:29N 35°30' E 139°45'0 0.0
2017-Dec-09 05:59N 35°30' E 139°45'0 0.0
2017-Dec-09 05:29N 35°30' E 139°45'1 1.1
2017-Dec-09 05:00N 35°30' E 139°44'3 6.2
2017-Dec-09 04:30N 35°27' E 139°43'510.2
2017-Dec-09 04:00N 35°29' E 139°49'0 0.5
2017-Dec-09 03:30N 35°29' E 139°49'0 0.0
2017-Dec-09 03:00N 35°29' E 139°49'0 0.0
2017-Dec-09 02:30N 35°29' E 139°49'2 4.6
2017-Dec-09 02:00N 35°30' E 139°51'611.8
2017-Dec-09 01:29N 35°35' E 139°56'5 9.7
2017-Dec-09 01:00N 35°40' E 139°57'1 0.3
2017-Dec-08 21:40N 35°40' E 139°56'1 6.8
2017-Dec-08 21:30N 35°40' E 139°57'4 7.9
2017-Dec-08 21:01N 35°36' E 139°56'1 0.9
2017-Dec-08 20:26N 35°36' E 139°55'0 0.0
2017-Dec-08 19:59N 35°36' E 139°55'0 0.0
2017-Dec-08 19:29N 35°36' E 139°55'0 0.0
2017-Dec-08 18:59N 35°36' E 139°55'0 0.0
2017-Dec-08 18:26N 35°36' E 139°55'0 0.0
2017-Dec-08 17:59N 35°36' E 139°55'0 0.0
2017-Dec-08 17:26N 35°36' E 139°55'0 0.1
2017-Dec-08 16:50N 35°36' E 139°55'0 0.0
2017-Dec-08 16:26N 35°36' E 139°55'  
Track history (hours):
 
Tides and Currents Weather Stations Pressure Air Temp Water Temp Dewpoint Dewpoint Depression Visibility Wind Speed Wind Dir Waves Ship Positions

Shokyu Maru

Last reported at 2017-Dec-18 16:16 UTC. Time now 2017-Dec-18 16:55 UTC.
Position N 35°41' E 139°59'.

Length 91 m; draft 3.8 m.

Type: Ship. MMSI: 431000253.

Date/timePositionNaut miles runAvg speedWind from/ knotsBaromVisibWave heightAir tempDewpointWater temp
2017-Dec-18 16:16N 35°41' E 139°59'0 0.0
2017-Dec-18 14:37N 35°41' E 139°59'0 0.0
2017-Dec-18 14:25N 35°41' E 139°59'0 0.0
2017-Dec-18 05:07N 35°41' E 139°59'0 0.5
2017-Dec-18 04:38N 35°41' E 139°59'1 9.0
2017-Dec-18 04:30N 35°39' E 139°59'5 9.8
2017-Dec-18 04:00N 35°35' E 139°56'1 1.4
2017-Dec-18 03:30N 35°36' E 139°56'5 9.1
2017-Dec-18 02:59N 35°40' E 139°57'1 1.4
2017-Dec-18 02:25N 35°41' E 139°56'0 0.1
2017-Dec-17 21:36N 35°40' E 139°57'1 7.1
2017-Dec-17 21:29N 35°40' E 139°57'4 8.3
2017-Dec-17 21:00N 35°36' E 139°56'1 1.3
2017-Dec-17 20:25N 35°35' E 139°55'0 0.0
2017-Dec-17 19:13N 35°35' E 139°55'0 0.0
2017-Dec-17 18:55N 35°35' E 139°55'0 0.0
2017-Dec-17 18:25N 35°35' E 139°55'0 0.0
2017-Dec-17 17:43N 35°35' E 139°55'0 0.0
2017-Dec-17 17:13N 35°35' E 139°55'0 0.0
2017-Dec-17 16:49N 35°35' E 139°55'0 0.0
2017-Dec-17 16:13N 35°35' E 139°55'0 0.0
2017-Dec-17 15:52N 35°35' E 139°55'0 0.0
2017-Dec-17 15:28N 35°35' E 139°55'0 0.0
2017-Dec-17 14:55N 35°35' E 139°55'0 0.0
2017-Dec-17 14:25N 35°35' E 139°55'0 0.0
2017-Dec-17 13:49N 35°35' E 139°55'0 0.0
2017-Dec-17 13:25N 35°35' E 139°55'0 0.0
2017-Dec-17 12:55N 35°35' E 139°55'2 4.7
2017-Dec-17 12:31N 35°34' E 139°54'5 9.9
2017-Dec-17 12:01N 35°31' E 139°49'2 4.7
2017-Dec-17 11:30N 35°31' E 139°46'0 0.0
2017-Dec-17 11:00N 35°31' E 139°46'0 0.0
2017-Dec-17 10:30N 35°31' E 139°46'0 0.0
2017-Dec-17 10:00N 35°31' E 139°46'0 0.0
2017-Dec-17 09:30N 35°31' E 139°46'0 0.0
2017-Dec-17 09:00N 35°31' E 139°46'0 0.0
2017-Dec-17 08:27N 35°31' E 139°46'0 0.0
2017-Dec-17 07:57N 35°31' E 139°46'0 0.0
2017-Dec-17 07:30N 35°31' E 139°46'0 0.0
2017-Dec-17 07:00N 35°31' E 139°46'0 0.0
2017-Dec-17 06:30N 35°31' E 139°46'0 0.0
2017-Dec-17 05:57N 35°31' E 139°46'0 0.0
2017-Dec-17 05:30N 35°31' E 139°46'0 0.1
2017-Dec-17 05:00N 35°31' E 139°46'4 8.0
2017-Dec-17 04:30N 35°29' E 139°42'4 8.2
2017-Dec-17 04:00N 35°28' E 139°47'611.6
2017-Dec-17 03:30N 35°32' E 139°53'611.5
2017-Dec-17 03:00N 35°36' E 139°57'4 6.3
2017-Dec-17 02:20N 35°41' E 139°56'0 0.0
2017-Dec-17 01:56N 35°41' E 139°56'0 0.0
2017-Dec-17 01:20N 35°41' E 139°56'0 0.0
2017-Dec-17 00:56N 35°41' E 139°56'0 0.0
2017-Dec-17 00:26N 35°41' E 139°56'0 0.0
2017-Dec-16 23:50N 35°41' E 139°56'0 0.0
2017-Dec-16 23:26N 35°41' E 139°56'0 0.0
2017-Dec-16 22:50N 35°41' E 139°56'0 0.0
2017-Dec-16 22:26N 35°41' E 139°56'0 0.3
2017-Dec-16 21:43N 35°40' E 139°57'2 8.4
2017-Dec-16 21:30N 35°39' E 139°58'4 8.0
2017-Dec-16 21:00N 35°36' E 139°55'0 0.5
2017-Dec-16 20:29N 35°36' E 139°55'0 0.0
2017-Dec-16 19:56N 35°36' E 139°55'0 0.0
2017-Dec-16 19:26N 35°36' E 139°55'0 0.0
2017-Dec-16 18:56N 35°36' E 139°55'0 0.1
2017-Dec-16 18:26N 35°36' E 139°55'0 0.2
2017-Dec-16 17:59N 35°36' E 139°55'0 0.0
2017-Dec-16 17:14N 35°36' E 139°55'0 0.0
2017-Dec-16 16:56N 35°36' E 139°55'0 0.0
2017-Dec-16 16:26N 35°36' E 139°55'0 0.0
2017-Dec-16 15:50N 35°36' E 139°55'0 0.0
2017-Dec-16 15:17N 35°36' E 139°55'0 0.0
2017-Dec-16 14:50N 35°36' E 139°55'0 0.1
2017-Dec-16 14:17N 35°36' E 139°55'0 0.1
2017-Dec-16 13:56N 35°36' E 139°55'0 0.0
2017-Dec-16 13:26N 35°36' E 139°55'0 0.0
2017-Dec-16 12:56N 35°36' E 139°55'0 0.0
2017-Dec-16 10:56N 35°36' E 139°55'2 4.4
2017-Dec-16 10:30N 35°34' E 139°54'510.7
2017-Dec-16 10:00N 35°31' E 139°49'2 4.7
2017-Dec-16 09:29N 35°31' E 139°46'0 0.0
2017-Dec-16 08:59N 35°31' E 139°46'0 0.0
2017-Dec-16 08:29N 35°31' E 139°46'0 0.0
2017-Dec-16 07:56N 35°31' E 139°46'0 0.0
2017-Dec-16 07:29N 35°31' E 139°46'0 0.0
2017-Dec-16 06:59N 35°31' E 139°46'0 0.0
2017-Dec-16 06:26N 35°31' E 139°46'0 0.0
2017-Dec-16 05:59N 35°31' E 139°46'0 0.0
2017-Dec-16 05:29N 35°31' E 139°46'0 0.0
2017-Dec-16 04:59N 35°31' E 139°46'0 0.0
2017-Dec-16 04:29N 35°31' E 139°46'0 0.0
2017-Dec-16 03:59N 35°31' E 139°46'0 0.1
2017-Dec-16 03:30N 35°31' E 139°46'4 8.5
2017-Dec-16 03:00N 35°28' E 139°42'5 9.5
2017-Dec-16 02:30N 35°29' E 139°48'611.4
2017-Dec-16 02:00N 35°32' E 139°53'611.6
2017-Dec-16 01:29N 35°37' E 139°58'3 7.3
2017-Dec-16 01:00N 35°41' E 139°56'0 0.0
2017-Dec-15 23:48N 35°41' E 139°56'0 0.0
2017-Dec-15 21:54N 35°41' E 139°56'1 2.7
2017-Dec-15 21:30N 35°40' E 139°57'4 8.0
2017-Dec-15 21:00N 35°36' E 139°56'1 1.7
2017-Dec-15 20:29N 35°35' E 139°55'0 0.1
2017-Dec-15 19:47N 35°35' E 139°55'0 0.0
2017-Dec-15 19:29N 35°35' E 139°55'0 0.0
2017-Dec-15 18:59N 35°35' E 139°55'0 0.0
2017-Dec-15 18:11N 35°35' E 139°55'0 0.0
2017-Dec-15 17:53N 35°35' E 139°55'0 0.0
2017-Dec-15 17:14N 35°35' E 139°55'0 0.0
2017-Dec-15 16:59N 35°35' E 139°55'0 0.0
2017-Dec-15 16:29N 35°35' E 139°55'0 0.0
2017-Dec-15 15:59N 35°35' E 139°55'0 0.0
2017-Dec-15 15:23N 35°35' E 139°55'0 0.0
2017-Dec-15 14:35N 35°35' E 139°55'0 0.1
2017-Dec-15 14:29N 35°35' E 139°55'0 0.0
2017-Dec-15 13:35N 35°35' E 139°55'0 0.0
2017-Dec-15 13:11N 35°35' E 139°55'0 0.0
2017-Dec-15 12:47N 35°35' E 139°55'0 0.0
2017-Dec-15 12:29N 35°35' E 139°55'1 2.2
2017-Dec-15 12:00N 35°35' E 139°56'510.3
2017-Dec-15 11:30N 35°32' E 140°01'1 2.8
2017-Dec-15 11:00N 35°31' E 140°03'0 0.0
2017-Dec-15 10:30N 35°31' E 140°03'0 0.0
2017-Dec-15 10:00N 35°31' E 140°03'0 0.0
2017-Dec-15 09:30N 35°31' E 140°03'0 0.0
2017-Dec-15 09:00N 35°31' E 140°03'0 0.0
2017-Dec-15 08:30N 35°31' E 140°03'0 0.0
2017-Dec-15 08:00N 35°31' E 140°03'0 0.0
2017-Dec-15 07:30N 35°31' E 140°03'0 0.0
2017-Dec-15 07:00N 35°31' E 140°03'0 0.0
2017-Dec-15 06:30N 35°31' E 140°03'0 0.0
2017-Dec-15 06:00N 35°31' E 140°03'0 0.0
2017-Dec-15 05:30N 35°31' E 140°03'0 0.0
2017-Dec-15 05:00N 35°31' E 140°03'0 0.0
2017-Dec-15 04:30N 35°31' E 140°03'0 0.0
2017-Dec-15 04:00N 35°31' E 140°03'7 4.3
2017-Dec-15 02:30N 35°37' E 139°59'4 2.2
2017-Dec-15 00:27N 35°41' E 139°56'5 0.9
2017-Dec-14 18:28N 35°35' E 139°55'0 0.0
2017-Dec-14 17:58N 35°35' E 139°55'0 0.0
2017-Dec-14 17:28N 35°35' E 139°55'0 0.0
2017-Dec-14 16:58N 35°35' E 139°55'0 0.0
2017-Dec-14 16:28N 35°35' E 139°55'0 0.0
2017-Dec-14 15:59N 35°35' E 139°55'8 7.8
2017-Dec-14 15:00N 35°31' E 140°03'0 0.1
2017-Dec-14 14:30N 35°31' E 140°03'0 0.0
2017-Dec-14 14:00N 35°31' E 140°03'0 0.0
2017-Dec-14 13:30N 35°31' E 140°03'0 0.0
2017-Dec-14 13:01N 35°31' E 140°03'0 0.0
2017-Dec-14 12:30N 35°31' E 140°03'0 0.0
2017-Dec-14 12:00N 35°31' E 140°03'0 0.0
2017-Dec-14 11:30N 35°31' E 140°03'0 0.0
2017-Dec-14 11:00N 35°31' E 140°03'0 0.0
2017-Dec-14 10:30N 35°31' E 140°03'0 0.0
2017-Dec-14 10:01N 35°31' E 140°03'0 0.0
2017-Dec-14 09:30N 35°31' E 140°03'0 0.0
2017-Dec-14 09:00N 35°31' E 140°03'0 0.0
2017-Dec-14 08:31N 35°31' E 140°03'0 0.0
2017-Dec-14 08:00N 35°31' E 140°03'1 2.7
2017-Dec-14 07:31N 35°32' E 140°01'0 0.2
2017-Dec-14 06:58N 35°32' E 140°01'0 0.0
2017-Dec-14 06:22N 35°32' E 140°01'0 0.0
2017-Dec-14 05:58N 35°32' E 140°01'0 0.1
2017-Dec-14 05:28N 35°32' E 140°02'0 0.1
2017-Dec-14 04:58N 35°32' E 140°01'0 0.1
2017-Dec-14 04:28N 35°32' E 140°02'0 0.1
2017-Dec-14 03:58N 35°32' E 140°01'3 6.6
2017-Dec-14 03:30N 35°35' E 140°00'611.6
2017-Dec-14 03:00N 35°40' E 139°57'1 0.3
2017-Dec-13 23:51N 35°41' E 139°56'0 0.0
2017-Dec-13 23:27N 35°41' E 139°56'0 0.0
2017-Dec-13 21:51N 35°41' E 139°56'1 2.4
2017-Dec-13 21:30N 35°40' E 139°57'4 7.6
2017-Dec-13 21:00N 35°36' E 139°56'1 1.9
2017-Dec-13 20:28N 35°36' E 139°55'0 0.0
2017-Dec-13 19:55N 35°36' E 139°55'0 0.0
2017-Dec-13 19:04N 35°36' E 139°55'0 0.0
2017-Dec-13 18:49N 35°36' E 139°55'0 0.0
2017-Dec-13 18:22N 35°36' E 139°55'0 0.0
2017-Dec-13 17:58N 35°36' E 139°55'0 0.0
2017-Dec-13 17:19N 35°36' E 139°55'0 0.0
2017-Dec-13 16:55N 35°36' E 139°55'0 0.0
2017-Dec-13 16:25N 35°36' E 139°55'0 0.0
2017-Dec-13 15:55N 35°36' E 139°55'0 0.0
2017-Dec-13 15:25N 35°36' E 139°55'0 0.0
2017-Dec-13 14:55N 35°36' E 139°55'0 0.0
2017-Dec-13 14:25N 35°36' E 139°55'0 0.0
2017-Dec-13 13:55N 35°36' E 139°55'0 0.0
2017-Dec-13 13:25N 35°36' E 139°55'0 0.0
2017-Dec-13 11:43N 35°36' E 139°55'0 0.0
2017-Dec-13 11:25N 35°36' E 139°55'0 0.1
2017-Dec-13 10:55N 35°36' E 139°55'0 0.1
2017-Dec-13 10:25N 35°36' E 139°55'0 0.3
2017-Dec-13 10:00N 35°36' E 139°55'4 8.5
2017-Dec-13 09:30N 35°33' E 139°59'4 7.0
2017-Dec-13 08:58N 35°30' E 140°02'0 0.0
2017-Dec-13 08:31N 35°30' E 140°02'0 0.0
2017-Dec-13 07:31N 35°30' E 140°02'0 0.0
2017-Dec-13 07:07N 35°30' E 140°02'0 0.0
2017-Dec-13 06:55N 35°30' E 140°02'0 0.0
2017-Dec-13 06:10N 35°30' E 140°02'0 0.0
2017-Dec-13 05:46N 35°30' E 140°02'0 0.0
2017-Dec-13 05:28N 35°30' E 140°02'0 0.1
2017-Dec-13 04:55N 35°30' E 140°02'2 4.6
2017-Dec-13 04:30N 35°31' E 140°00'4 7.7
2017-Dec-13 04:00N 35°34' E 139°56'2 3.1
2017-Dec-13 03:30N 35°34' E 139°55'3 6.8
2017-Dec-13 02:59N 35°37' E 139°58'3 6.7
2017-Dec-13 02:29N 35°41' E 139°56'0 0.0
2017-Dec-13 01:59N 35°41' E 139°56'0 0.0
2017-Dec-13 01:29N 35°41' E 139°56'0 0.0
2017-Dec-13 00:53N 35°41' E 139°56'0 0.0
2017-Dec-13 00:29N 35°41' E 139°56'0 0.0
2017-Dec-12 23:59N 35°41' E 139°56'0 0.0
2017-Dec-12 23:29N 35°41' E 139°56'0 0.0
2017-Dec-12 22:59N 35°41' E 139°56'0 0.0
2017-Dec-12 22:29N 35°41' E 139°56'0 0.0
2017-Dec-12 21:53N 35°41' E 139°56'1 3.6
2017-Dec-12 21:30N 35°40' E 139°58'4 7.7
2017-Dec-12 21:00N 35°36' E 139°56'1 1.0
2017-Dec-12 20:28N 35°36' E 139°55'0 0.1
2017-Dec-12 19:52N 35°36' E 139°55'0 0.1
2017-Dec-12 19:29N 35°36' E 139°55'0 0.0
2017-Dec-12 18:59N 35°36' E 139°55'0 0.0
2017-Dec-12 18:28N 35°36' E 139°55'0 0.0
2017-Dec-12 17:58N 35°36' E 139°55'0 0.0
2017-Dec-12 16:29N 35°36' E 139°55'0 0.0
2017-Dec-12 15:58N 35°36' E 139°55'0 0.0
2017-Dec-12 15:28N 35°36' E 139°55'0 0.0
2017-Dec-12 14:58N 35°36' E 139°55'0 0.0
2017-Dec-12 14:28N 35°36' E 139°55'0 0.0
2017-Dec-12 13:58N 35°36' E 139°55'0 0.0
2017-Dec-12 13:30N 35°36' E 139°55'3 6.9
2017-Dec-12 13:01N 35°33' E 139°52'5 9.8
2017-Dec-12 12:30N 35°30' E 139°48'2 3.3
2017-Dec-12 12:00N 35°31' E 139°46'0 0.0
2017-Dec-12 11:30N 35°31' E 139°46'0 0.0
2017-Dec-12 11:00N 35°31' E 139°46'0 0.0
2017-Dec-12 10:30N 35°31' E 139°46'0 0.0
2017-Dec-12 10:00N 35°31' E 139°46'0 0.0
2017-Dec-12 09:27N 35°31' E 139°46'0 0.0
2017-Dec-12 09:00N 35°31' E 139°46'0 0.0
2017-Dec-12 08:24N 35°31' E 139°46'0 0.0
2017-Dec-12 07:57N 35°31' E 139°46'0 0.0
2017-Dec-12 07:30N 35°31' E 139°46'0 0.0
2017-Dec-12 07:00N 35°31' E 139°46'0 0.0
2017-Dec-12 06:30N 35°31' E 139°46'0 0.0
2017-Dec-12 06:00N 35°31' E 139°46'3 5.1
2017-Dec-12 05:30N 35°30' E 139°44'3 6.3
2017-Dec-12 05:00N 35°26' E 139°44'0 1.0
2017-Dec-12 04:30N 35°26' E 139°43'4 8.5
2017-Dec-12 04:00N 35°28' E 139°39'0 0.3
2017-Dec-12 03:31N 35°29' E 139°39'0 0.0
2017-Dec-12 03:00N 35°29' E 139°39'0 0.0
2017-Dec-12 02:31N 35°29' E 139°39'0 0.0
2017-Dec-12 02:00N 35°29' E 139°39'0 0.0
2017-Dec-12 01:30N 35°29' E 139°39'0 0.0
2017-Dec-12 01:00N 35°29' E 139°39'0 0.0
2017-Dec-12 00:30N 35°29' E 139°39'0 0.0
2017-Dec-12 00:00N 35°29' E 139°39'0 0.0
2017-Dec-11 23:30N 35°29' E 139°39'0 0.0
2017-Dec-11 23:00N 35°29' E 139°39'0 0.0
2017-Dec-11 22:30N 35°29' E 139°39'0 0.0
2017-Dec-11 22:00N 35°29' E 139°39'0 0.0
2017-Dec-11 21:30N 35°29' E 139°39'0 0.0
2017-Dec-11 21:00N 35°29' E 139°39'0 0.0
2017-Dec-11 20:31N 35°29' E 139°39'0 0.0
2017-Dec-11 20:00N 35°29' E 139°39'0 0.0
2017-Dec-11 19:30N 35°29' E 139°39'0 0.0
2017-Dec-11 19:00N 35°29' E 139°39'0 0.0
2017-Dec-11 18:30N 35°29' E 139°39'0 0.0
2017-Dec-11 18:01N 35°29' E 139°39'0 0.0
2017-Dec-11 17:28N 35°29' E 139°39'0 0.0
2017-Dec-11 17:00N 35°29' E 139°39'0 0.0
2017-Dec-11 16:30N 35°29' E 139°39'0 0.0
2017-Dec-11 15:57N 35°29' E 139°39'0 0.0
2017-Dec-11 15:30N 35°29' E 139°39'0 0.0
2017-Dec-11 15:00N 35°29' E 139°39'0 0.0
2017-Dec-11 14:31N 35°29' E 139°39'0 0.0
2017-Dec-11 14:00N 35°29' E 139°39'0 0.0
2017-Dec-11 13:30N 35°29' E 139°39'0 0.0
2017-Dec-11 13:00N 35°29' E 139°39'0 0.0
2017-Dec-11 12:30N 35°29' E 139°39'0 0.0
2017-Dec-11 12:00N 35°29' E 139°39'0 0.0
2017-Dec-11 11:30N 35°29' E 139°39'0 0.0
2017-Dec-11 11:00N 35°29' E 139°39'0 0.0
2017-Dec-11 10:31N 35°29' E 139°39'0 0.0
2017-Dec-11 09:58N 35°29' E 139°39'0 0.0
2017-Dec-11 09:30N 35°29' E 139°39'0 0.0
2017-Dec-11 09:00N 35°29' E 139°39'0 0.0
2017-Dec-11 08:30N 35°29' E 139°39'0 0.0
2017-Dec-11 08:01N 35°29' E 139°39'0 0.0
2017-Dec-11 07:30N 35°29' E 139°39'0 0.0
2017-Dec-11 07:00N 35°29' E 139°39'0 0.0
2017-Dec-11 06:30N 35°29' E 139°39'0 0.0
2017-Dec-11 06:00N 35°29' E 139°39'0 0.0
2017-Dec-11 05:28N 35°29' E 139°39'0 0.0
2017-Dec-11 05:00N 35°29' E 139°39'4 7.4
2017-Dec-11 04:30N 35°27' E 139°43'5 9.9
2017-Dec-11 04:00N 35°29' E 139°48'5 9.5
2017-Dec-11 03:30N 35°32' E 139°53'610.9
2017-Dec-11 02:55N 35°37' E 139°58'4 0.7
2017-Dec-10 21:41N 35°40' E 139°57'1 6.1
2017-Dec-10 21:30N 35°40' E 139°57'4 7.8
2017-Dec-10 21:00N 35°36' E 139°56'1 1.8
2017-Dec-10 20:30N 35°36' E 139°55'0 0.0
2017-Dec-10 20:00N 35°36' E 139°55'0 0.0
2017-Dec-10 19:30N 35°36' E 139°55'0 0.0
2017-Dec-10 18:55N 35°36' E 139°55'0 0.0
2017-Dec-10 18:28N 35°36' E 139°55'0 0.0
2017-Dec-10 17:59N 35°36' E 139°55'0 0.0
2017-Dec-10 17:28N 35°36' E 139°55'0 0.0
2017-Dec-10 16:40N 35°36' E 139°55'0 0.0
2017-Dec-10 16:26N 35°36' E 139°55'0 0.0
2017-Dec-10 15:01N 35°36' E 139°55'0 1.5
2017-Dec-10 14:59N 35°36' E 139°55'3 6.9
2017-Dec-10 14:30N 35°33' E 139°53'510.5
2017-Dec-10 14:01N 35°30' E 139°47'1 2.4
2017-Dec-10 13:28N 35°31' E 139°46'0 0.0
2017-Dec-10 12:58N 35°31' E 139°46'0 0.0
2017-Dec-10 12:28N 35°31' E 139°46'0 0.0
2017-Dec-10 11:49N 35°31' E 139°46'0 0.0
2017-Dec-10 11:28N 35°31' E 139°46'0 0.0
2017-Dec-10 10:58N 35°31' E 139°46'0 0.0
2017-Dec-10 10:28N 35°31' E 139°46'0 0.0
2017-Dec-10 09:58N 35°31' E 139°46'0 0.0
2017-Dec-10 09:28N 35°31' E 139°46'0 0.0
2017-Dec-10 08:52N 35°31' E 139°46'0 0.0
2017-Dec-10 08:28N 35°31' E 139°46'0 0.0
2017-Dec-10 07:58N 35°31' E 139°46'4 8.2
2017-Dec-10 07:30N 35°29' E 139°42'3 6.8
2017-Dec-10 07:00N 35°28' E 139°46'3 5.6
2017-Dec-10 06:30N 35°29' E 139°49'0 0.0
2017-Dec-10 06:00N 35°29' E 139°49'0 0.0
2017-Dec-10 05:30N 35°29' E 139°49'1 1.2
2017-Dec-10 05:00N 35°30' E 139°50'510.7
2017-Dec-10 04:30N 35°34' E 139°54'611.4
2017-Dec-10 04:00N 35°38' E 139°59'3 0.6
2017-Dec-09 22:56N 35°41' E 139°56'1 1.6
2017-Dec-09 22:30N 35°40' E 139°57'4 7.6
2017-Dec-09 22:01N 35°36' E 139°56'1 1.8
2017-Dec-09 21:19N 35°36' E 139°55'0 0.0
2017-Dec-09 20:55N 35°36' E 139°55'0 0.0
2017-Dec-09 20:25N 35°36' E 139°55'0 0.0
2017-Dec-09 19:49N 35°36' E 139°55'0 0.0
2017-Dec-09 19:25N 35°36' E 139°55'0 0.0
2017-Dec-09 18:55N 35°36' E 139°55'0 0.0
2017-Dec-09 18:25N 35°36' E 139°55'0 0.1
2017-Dec-09 17:55N 35°36' E 139°55'0 0.0
2017-Dec-09 17:25N 35°36' E 139°55'0 0.1
2017-Dec-09 16:58N 35°36' E 139°55'0 0.1
2017-Dec-09 16:25N 35°36' E 139°55'0 0.0
2017-Dec-09 15:55N 35°36' E 139°55'0 0.0
2017-Dec-09 15:25N 35°36' E 139°55'0 0.1
2017-Dec-09 14:46N 35°36' E 139°55'0 0.0
2017-Dec-09 14:22N 35°36' E 139°55'0 0.1
2017-Dec-09 13:55N 35°36' E 139°55'0 0.1
2017-Dec-09 13:28N 35°36' E 139°55'0 0.1
2017-Dec-09 12:46N 35°36' E 139°55'0 0.1
2017-Dec-09 11:46N 35°36' E 139°55'1 3.9
2017-Dec-09 11:30N 35°35' E 139°54'510.5
2017-Dec-09 11:01N 35°31' E 139°50'4 7.2
2017-Dec-09 10:29N 35°30' E 139°45'0 0.0
2017-Dec-09 09:56N 35°30' E 139°45'0 0.0
2017-Dec-09 09:29N 35°30' E 139°45'0 0.0
2017-Dec-09 08:53N 35°30' E 139°45'0 0.0
2017-Dec-09 08:29N 35°30' E 139°45'0 0.0
2017-Dec-09 07:59N 35°30' E 139°45'0 0.0
2017-Dec-09 07:29N 35°30' E 139°45'0 0.0
2017-Dec-09 06:59N 35°30' E 139°45'0 0.0
2017-Dec-09 06:29N 35°30' E 139°45'0 0.0
2017-Dec-09 05:59N 35°30' E 139°45'0 0.0
2017-Dec-09 05:29N 35°30' E 139°45'1 1.1
2017-Dec-09 05:00N 35°30' E 139°44'3 6.2
2017-Dec-09 04:30N 35°27' E 139°43'510.2
2017-Dec-09 04:00N 35°29' E 139°49'0 0.5
2017-Dec-09 03:30N 35°29' E 139°49'0 0.0
2017-Dec-09 03:00N 35°29' E 139°49'0 0.0
2017-Dec-09 02:30N 35°29' E 139°49'2 4.6
2017-Dec-09 02:00N 35°30' E 139°51'611.8
2017-Dec-09 01:29N 35°35' E 139°56'5 9.7
2017-Dec-09 01:00N 35°40' E 139°57'1 0.3
2017-Dec-08 21:40N 35°40' E 139°56'1 6.8
2017-Dec-08 21:30N 35°40' E 139°57'4 7.9
2017-Dec-08 21:01N 35°36' E 139°56'1 0.9
2017-Dec-08 20:26N 35°36' E 139°55'0 0.0
2017-Dec-08 19:59N 35°36' E 139°55'0 0.0
2017-Dec-08 19:29N 35°36' E 139°55'0 0.0
2017-Dec-08 18:59N 35°36' E 139°55'0 0.0
2017-Dec-08 18:26N 35°36' E 139°55'0 0.0
2017-Dec-08 17:59N 35°36' E 139°55'0 0.0
2017-Dec-08 17:26N 35°36' E 139°55'0 0.1
2017-Dec-08 16:50N 35°36' E 139°55'0 0.0
2017-Dec-08 16:26N 35°36' E 139°55'  

Dump ship's entire track history